Meteo Giornale » Osservazioni meteo Stati Uniti (USA) » Fayetteville Drake Fld
ore: 04:53 - Osservazioni Meteo Fayetteville Drake Fld
Lat. 36° 0' N Lon. 94° 10' W Alt. 381 metri s.l.m.
25 °C
Sereno
Temp. 24 Ore
24 °C
38 °C
Nord
0 Km/h
Dew point 19 °C
Umidità 69 %
Visibilità 10 Km
Il sole sorge alle ore 06:48
Il sole tramonta alle ore 19:44
| Data e Ora | Cielo e Fenomeni | T °C | DP °C | Um. % | Pres. hPa | Vis. km | Vento km/h | |
|---|---|---|---|---|---|---|---|---|
| Oggi h: 04:53 | Sereno | 25 | 19 | 69 | 1018 | 10 | N 0 | |
| Oggi h: 03:53 | Poco Nuvoloso | 27 | 19 | 61 | 1018 | 10 | N 0 | |
| Oggi h: 02:53 | Molto Nuvoloso | 24 | 18 | 69 | 1018 | 10 | N 0 | |
| Oggi h: 01:53 | Sereno | 24 | 18 | 69 | 1018 | 10 | N 0 | |
| Oggi h: 00:53 | Sereno | 24 | 17 | 64 | 1018 | 10 | N 0 | |
| Ieri h: 23:53 | Sereno | 28 | 17 | 51 | 1017 | 10 | N 0 | |
| Ieri h: 22:53 | Sereno | 28 | 16 | 48 | 1017 | 10 | S/SO 7.4 | |
| Ieri h: 21:53 | Sereno | 30 | 14 | 37 | 1017 | 10 | S/SE 13 | |
| Ieri h: 20:53 | Sereno | 32 | 15 | 35 | 1016 | 10 | S/SE 9.3 | |
| Ieri h: 19:53 | Sereno | 33 | 16 | 36 | 1016 | 10 | SE 13 | |
| Ieri h: 18:53 | Sereno | 36 | 16 | 30 | 1015 | 10 | S 14.8 | |
| Ieri h: 17:53 | Nuvoloso | 36 | 16 | 30 | 1016 | 10 | S 11.1 | |
| Ieri h: 16:53 | Poco Nuvoloso | 38 | 15 | 25 | 1016 | 10 | S 11.1 | |
| Ieri h: 15:53 | Sereno | 38 | 14 | 24 | 1016 | 10 | S 18.5 | |
| Ieri h: 14:53 | Poco Nuvoloso | 37 | 15 | 27 | 1017 | 10 | N 0 | |
| Ieri h: 13:53 | Poco Nuvoloso | 37 | 16 | 28 | 1017 | 10 | N 11.1 | |
| Ieri h: 12:53 | Molto Nuvoloso | 36 | 17 | 32 | 1018 | 10 | N 0 | |
| Ieri h: 11:53 | Nuvoloso | 36 | 18 | 34 | 1019 | 10 | O/SO 14.8 | |
| Ieri h: 10:53 | Sereno | 34 | 18 | 38 | 1019 | 10 | N 9.3 | |
| Ieri h: 09:53 | Sereno | 33 | 19 | 43 | 1019 | 10 | S 18.5 | |
| Ieri h: 08:53 | Sereno | 30 | 19 | 51 | 1019 | 10 | S 16.7 | |
| Ieri h: 07:53 | Sereno | 27 | 19 | 61 | 1018 | 10 | N 0 | |
| Ieri h: 06:53 | Sereno | 24 | 18 | 69 | 1017 | 10 | N 0 | |
| Ieri h: 05:53 | Sereno | 26 | 17 | 57 | 1017 | 10 | N 5.5 | |



